ENKR/KKN METAR and TAF weather

Enter ICAO airport designator
Station Type Date Time Source
ENKR METAR 2022/11/26 09:20 UTC NOAA

ENKR 260920Z 20010KT 9999 -SN BKN010 M04/M05 Q1026 RMK WIND 731FT 21016KT


Station Type Date Time Source
ENKR Decoded METAR 2022/11/26 09:20 UTC NOAA

Kirkenes Lufthavn, Norway (ENKR) 69-44N 029-54E 91M
Nov 26, 2022 - 04:20 AM EST / 2022.11.26 0920 UTC
Wind: from the SSW (200 degrees) at 12 MPH (10 KT):0
Visibility: greater than 7 mile(s):0
Sky conditions: mostly cloudy
Weather: light snow
Temperature: 24 F (-4 C)
Windchill: 12 F (-11 C):1
Dew Point: 23 F (-5 C)
Relative Humidity: 92%
Pressure (altimeter): 30.30 in. Hg (1026 hPa)
ob: ENKR 260920Z 20010KT 9999 -SN BKN010 M04/M05 Q1026 RMK WIND 731FT 21016KT
cycle: 9

Station Type Date Time Source
ENKR TAF 2017/08/31 21:36 UTC NOAA

TAF TAF ENKR 312300Z 3121/0109 29005KT 9999 FEW020 SCT040

Example: see airport list